Time;durP1;ratioP1;P1;durP2;ratioP2;P2;SDS_P1;SDS_P2;PMS_P1;PMS_P2;Temp;Humidity;BMP_temperature;BMP_pressure;BME280_temperature;BME280_humidity;BME280_pressure;Samples;Min_cycle;Max_cycle;Signal;HPM_P1;HPM_P2
2022/07/27 00:01:36;;;;;;;8.13;2.80;;;;;;;;;;5073677;28;20024;-76
2022/07/27 00:04:02;;;;;;;7.00;2.60;;;;;;;;;;5075384;28;20348;-76
2022/07/27 00:06:28;;;;;;;6.90;2.08;;;;;;;;;;5075097;28;20138;-76
2022/07/27 00:08:54;;;;;;;3.83;1.65;;;;;;;;;;5075286;28;20396;-76
2022/07/27 00:11:20;;;;;;;3.95;2.00;;;;;;;;;;5074857;28;20024;-76
2022/07/27 00:13:47;;;;;;;3.13;1.90;;;;;;;;;;5074588;28;20032;-76
2022/07/27 00:16:13;;;;;;;8.48;3.10;;;;;;;;;;5074968;28;20016;-76
2022/07/27 00:18:39;;;;;;;7.38;2.78;;;;;;;;;;5075145;28;20081;-76
2022/07/27 00:21:05;;;;;;;3.35;2.22;;;;;;;;;;5074759;28;20070;-76
2022/07/27 00:23:32;;;;;;;5.03;1.98;;;;;;;;;;5074950;28;20016;-76
2022/07/27 00:25:58;;;;;;;9.63;1.80;;;;;;;;;;5074842;28;20016;-76
2022/07/27 00:28:25;;;;;;;8.10;2.08;;;;;;;;;;5070106;28;20027;-76
2022/07/27 00:30:51;;;;;;;5.00;1.83;;;;;;;;;;5054730;28;20025;-76
2022/07/27 00:33:17;;;;;;;7.55;1.70;;;;;;;;;;5054360;28;20033;-76
2022/07/27 00:35:43;;;;;;;7.45;2.40;;;;;;;;;;5054498;28;20029;-76
2022/07/27 00:38:09;;;;;;;6.72;1.92;;;;;;;;;;5054531;28;20025;-76
2022/07/27 00:40:35;;;;;;;9.40;2.20;;;;;;;;;;5052811;28;20023;-76
2022/07/27 00:43:01;;;;;;;5.68;1.73;;;;;;;;;;5054324;28;20128;-76
2022/07/27 00:45:27;;;;;;;5.32;2.17;;;;;;;;;;5054525;28;20038;-76
2022/07/27 00:47:53;;;;;;;5.40;2.00;;;;;;;;;;5054397;28;20029;-76
2022/07/27 00:50:19;;;;;;;4.63;2.08;;;;;;;;;;5054055;28;20456;-76
2022/07/27 00:52:46;;;;;;;5.28;2.20;;;;;;;;;;5054118;28;20462;-76
2022/07/27 00:55:13;;;;;;;6.80;2.50;;;;;;;;;;5054205;28;20032;-76
2022/07/27 00:57:40;;;;;;;4.85;2.50;;;;;;;;;;5053981;28;20021;-76
2022/07/27 01:00:07;;;;;;;4.63;2.20;;;;;;;;;;5053970;28;20037;-76
2022/07/27 01:02:33;;;;;;;8.05;2.13;;;;;;;;;;5053857;28;20082;-76
2022/07/27 01:04:59;;;;;;;6.30;2.40;;;;;;;;;;5054031;28;20032;-76
2022/07/27 01:07:25;;;;;;;2.85;2.03;;;;;;;;;;5053690;28;20109;-76
2022/07/27 01:09:57;;;;;;;6.35;2.15;;;;;;;;;;5054068;28;20035;-76
2022/07/27 01:12:25;;;;;;;4.50;2.22;;;;;;;;;;5070000;28;20052;-76
2022/07/27 01:14:51;;;;;;;3.90;2.20;;;;;;;;;;5073743;28;20017;-76
2022/07/27 01:17:18;;;;;;;5.50;2.17;;;;;;;;;;5072045;28;20447;-76
2022/07/27 01:19:44;;;;;;;2.75;1.92;;;;;;;;;;5073594;28;20104;-76
2022/07/27 01:22:10;;;;;;;6.30;2.10;;;;;;;;;;5073707;28;20032;-76
2022/07/27 01:24:36;;;;;;;4.93;2.30;;;;;;;;;;5073601;28;20032;-76
2022/07/27 01:27:03;;;;;;;4.53;2.00;;;;;;;;;;5071997;28;20074;-76
2022/07/27 01:29:30;;;;;;;9.25;2.15;;;;;;;;;;5072463;28;20039;-76
2022/07/27 01:31:56;;;;;;;4.40;2.13;;;;;;;;;;5073035;28;20021;-76
2022/07/27 01:34:22;;;;;;;4.32;2.28;;;;;;;;;;5073276;28;20032;-76
2022/07/27 01:36:49;;;;;;;5.25;2.88;;;;;;;;;;5073426;28;20354;-76
2022/07/27 01:39:16;;;;;;;5.47;2.50;;;;;;;;;;5071962;28;20394;-76
2022/07/27 01:41:42;;;;;;;4.30;2.25;;;;;;;;;;5073309;28;20155;-76
2022/07/27 01:44:08;;;;;;;9.25;2.40;;;;;;;;;;5073404;28;20028;-76
2022/07/27 01:46:34;;;;;;;4.82;2.33;;;;;;;;;;5073005;28;20051;-77
2022/07/27 01:49:00;;;;;;;4.70;2.00;;;;;;;;;;5072745;28;20173;-76
2022/07/27 01:51:26;;;;;;;5.18;2.75;;;;;;;;;;5053355;28;20025;-76
2022/07/27 01:53:52;;;;;;;4.40;2.42;;;;;;;;;;5053128;28;20028;-77
2022/07/27 01:56:18;;;;;;;5.55;2.83;;;;;;;;;;5052857;28;20017;-77
2022/07/27 01:58:45;;;;;;;4.95;2.90;;;;;;;;;;5053091;28;20024;-77
2022/07/27 02:01:11;;;;;;;8.68;2.60;;;;;;;;;;5052894;28;20103;-77
2022/07/27 02:03:37;;;;;;;3.28;2.00;;;;;;;;;;5052801;28;20065;-77
2022/07/27 02:06:04;;;;;;;5.15;2.58;;;;;;;;;;5052838;28;20366;-77
2022/07/27 02:08:30;;;;;;;8.98;2.42;;;;;;;;;;5052786;28;20114;-77
2022/07/27 02:13:46;;;;;;;6.85;2.65;;;;;;;;;;5053097;28;20486;-77
2022/07/27 02:16:12;;;;;;;4.72;2.47;;;;;;;;;;5051691;28;20021;-77
2022/07/27 02:18:38;;;;;;;5.57;2.95;;;;;;;;;;5052288;28;20341;-77
2022/07/27 02:21:05;;;;;;;6.40;2.20;;;;;;;;;;5052936;28;20021;-77
2022/07/27 02:23:31;;;;;;;6.72;2.30;;;;;;;;;;5052798;28;20025;-77
2022/07/27 02:25:57;;;;;;;8.80;2.72;;;;;;;;;;5052666;28;20402;-77
2022/07/27 02:28:23;;;;;;;11.77;3.10;;;;;;;;;;5056688;28;20024;-76
2022/07/27 02:30:49;;;;;;;6.13;2.50;;;;;;;;;;5072613;28;20024;-76
2022/07/27 02:33:15;;;;;;;5.13;2.17;;;;;;;;;;5072599;28;20100;-77
2022/07/27 02:35:42;;;;;;;8.60;2.40;;;;;;;;;;5072531;28;20527;-77
2022/07/27 02:38:08;;;;;;;4.05;2.30;;;;;;;;;;5072400;28;20077;-77
2022/07/27 02:40:34;;;;;;;5.95;2.85;;;;;;;;;;5072197;28;20031;-77
2022/07/27 02:43:00;;;;;;;5.50;2.85;;;;;;;;;;5072285;28;20052;-76
2022/07/27 02:45:26;;;;;;;7.15;3.17;;;;;;;;;;5072317;28;20034;-77
2022/07/27 02:47:52;;;;;;;5.03;2.28;;;;;;;;;;5072477;28;20025;-77
2022/07/27 02:50:18;;;;;;;4.65;2.40;;;;;;;;;;5072418;28;20063;-77
2022/07/27 02:52:44;;;;;;;5.75;2.70;;;;;;;;;;5072400;28;20443;-77
2022/07/27 02:55:10;;;;;;;6.22;2.60;;;;;;;;;;5072405;28;20108;-76
2022/07/27 02:57:39;;;;;;;6.22;2.88;;;;;;;;;;5072312;28;20020;-77
2022/07/27 03:00:06;;;;;;;7.80;2.72;;;;;;;;;;5072246;28;20153;-77
2022/07/27 03:02:33;;;;;;;7.03;3.42;;;;;;;;;;5072212;28;20028;-77
2022/07/27 03:04:59;;;;;;;12.57;3.10;;;;;;;;;;5072356;28;20029;-77
2022/07/27 03:07:25;;;;;;;5.68;3.00;;;;;;;;;;5072059;28;20131;-76
2022/07/27 03:09:51;;;;;;;6.95;3.05;;;;;;;;;;5072357;28;20028;-76
2022/07/27 03:12:17;;;;;;;8.68;3.15;;;;;;;;;;5056602;28;20029;-77
2022/07/27 03:14:43;;;;;;;7.82;2.90;;;;;;;;;;5052121;28;20117;-76
2022/07/27 03:17:09;;;;;;;8.10;3.00;;;;;;;;;;5052030;28;20487;-76
2022/07/27 03:19:35;;;;;;;7.63;3.05;;;;;;;;;;5051943;28;20056;-77
2022/07/27 03:22:01;;;;;;;7.68;3.35;;;;;;;;;;5052064;28;20069;-76
2022/07/27 03:24:27;;;;;;;8.32;2.97;;;;;;;;;;5051900;28;20507;-77
2022/07/27 03:26:53;;;;;;;7.82;2.95;;;;;;;;;;5051978;28;20384;-77
2022/07/27 03:29:19;;;;;;;5.43;2.70;;;;;;;;;;5051956;28;20025;-77
2022/07/27 03:31:45;;;;;;;5.00;2.80;;;;;;;;;;5051901;28;20025;-76
2022/07/27 03:34:11;;;;;;;8.95;3.22;;;;;;;;;;5051984;28;20056;-76
2022/07/27 03:36:37;;;;;;;11.48;2.67;;;;;;;;;;5051920;28;20021;-77
2022/07/27 03:39:03;;;;;;;4.82;2.40;;;;;;;;;;5052059;28;20017;-77
2022/07/27 03:41:29;;;;;;;9.88;3.25;;;;;;;;;;5051526;28;20122;-77
2022/07/27 03:43:55;;;;;;;7.85;3.22;;;;;;;;;;5051881;28;20021;-76
2022/07/27 03:46:21;;;;;;;8.77;2.72;;;;;;;;;;5050274;28;20025;-76
2022/07/27 03:48:47;;;;;;;7.13;3.30;;;;;;;;;;5052329;28;20098;-76
2022/07/27 03:51:13;;;;;;;5.50;2.65;;;;;;;;;;5055282;28;20028;-76
2022/07/27 03:53:39;;;;;;;10.07;3.20;;;;;;;;;;5054107;28;20079;-77
2022/07/27 03:56:05;;;;;;;4.82;2.83;;;;;;;;;;5055423;28;20025;-76
2022/07/27 03:58:32;;;;;;;4.82;2.83;;;;;;;;;;5055063;28;20021;-76
2022/07/27 04:00:58;;;;;;;5.25;2.70;;;;;;;;;;5055351;28;20183;-76
2022/07/27 04:03:24;;;;;;;5.13;2.72;;;;;;;;;;5055016;28;20056;-77
2022/07/27 04:05:50;;;;;;;6.65;3.03;;;;;;;;;;5055259;28;20032;-76
2022/07/27 04:08:16;;;;;;;4.70;2.60;;;;;;;;;;5053613;28;20060;-76
2022/07/27 04:10:43;;;;;;;6.03;2.78;;;;;;;;;;5055027;28;20087;-77
2022/07/27 04:13:11;;;;;;;6.82;2.70;;;;;;;;;;5054632;28;20025;-77
2022/07/27 04:15:37;;;;;;;4.25;2.30;;;;;;;;;;5053534;28;20367;-77
2022/07/27 04:18:03;;;;;;;9.25;2.85;;;;;;;;;;5054966;28;20028;-76
2022/07/27 04:20:29;;;;;;;8.52;2.67;;;;;;;;;;5054873;28;20082;-76
2022/07/27 04:22:55;;;;;;;7.05;3.00;;;;;;;;;;5054880;28;20025;-76
2022/07/27 04:25:22;;;;;;;7.40;2.90;;;;;;;;;;5054575;28;20052;-77
2022/07/27 04:27:48;;;;;;;5.68;2.95;;;;;;;;;;5054893;28;20025;-77
2022/07/27 04:30:14;;;;;;;9.43;2.40;;;;;;;;;;5054578;28;20100;-77
2022/07/27 04:32:40;;;;;;;8.90;3.30;;;;;;;;;;5053218;28;20424;-76
2022/07/27 04:35:07;;;;;;;4.50;2.38;;;;;;;;;;5054172;28;20025;-76
2022/07/27 04:37:33;;;;;;;6.70;2.45;;;;;;;;;;5053124;28;20052;-76
2022/07/27 04:40:00;;;;;;;4.82;2.35;;;;;;;;;;5054369;28;20021;-76
2022/07/27 04:42:27;;;;;;;8.18;2.53;;;;;;;;;;5054277;28;20430;-76
2022/07/27 04:44:53;;;;;;;7.18;3.08;;;;;;;;;;5054419;28;20024;-77
2022/07/27 04:47:19;;;;;;;5.70;2.35;;;;;;;;;;5054099;28;20533;-77
2022/07/27 04:49:45;;;;;;;7.28;2.75;;;;;;;;;;5054366;28;20483;-76
2022/07/27 04:52:14;;;;;;;4.60;2.10;;;;;;;;;;5054196;28;20025;-76
2022/07/27 04:54:41;;;;;;;6.38;2.10;;;;;;;;;;5054323;28;20391;-76
2022/07/27 04:57:07;;;;;;;5.55;2.10;;;;;;;;;;5054345;28;20478;-76
2022/07/27 04:59:33;;;;;;;5.97;2.30;;;;;;;;;;5054114;28;20045;-76
2022/07/27 05:01:59;;;;;;;4.90;2.10;;;;;;;;;;5053899;28;20090;-77
2022/07/27 05:04:25;;;;;;;11.20;2.72;;;;;;;;;;5052699;28;20025;-77
2022/07/27 05:06:51;;;;;;;6.32;2.50;;;;;;;;;;5053033;28;20409;-77
2022/07/27 05:09:17;;;;;;;8.20;2.40;;;;;;;;;;5054112;28;20435;-76
2022/07/27 05:11:43;;;;;;;4.80;2.10;;;;;;;;;;5064475;28;20029;-76
2022/07/27 05:14:09;;;;;;;4.40;2.13;;;;;;;;;;5074077;28;20028;-76
2022/07/27 05:16:38;;;;;;;8.50;2.10;;;;;;;;;;5073776;28;20126;-77
2022/07/27 05:19:04;;;;;;;5.97;2.20;;;;;;;;;;5072181;28;20451;-76
2022/07/27 05:21:30;;;;;;;7.75;2.25;;;;;;;;;;5073374;28;20111;-77
2022/07/27 05:23:56;;;;;;;8.98;2.50;;;;;;;;;;5073651;28;20024;-77
2022/07/27 05:26:22;;;;;;;5.07;2.45;;;;;;;;;;5073564;28;20112;-76
2022/07/27 05:28:48;;;;;;;4.10;2.30;;;;;;;;;;5073336;28;20131;-77
2022/07/27 05:31:14;;;;;;;4.68;2.17;;;;;;;;;;5073470;28;20024;-76
2022/07/27 05:33:40;;;;;;;11.70;2.97;;;;;;;;;;5073454;28;20085;-77
2022/07/27 05:36:06;;;;;;;8.55;3.40;;;;;;;;;;5073270;28;20067;-77
2022/07/27 05:38:37;;;;;;;6.32;3.83;;;;;;;;;;5073354;28;20024;-77
2022/07/27 05:41:04;;;;;;;12.07;5.15;;;;;;;;;;5072970;28;20110;-77
2022/07/27 05:43:30;;;;;;;14.10;5.75;;;;;;;;;;5073119;28;20027;-77
2022/07/27 05:45:56;;;;;;;8.73;4.75;;;;;;;;;;5073331;28;20020;-77
2022/07/27 05:48:22;;;;;;;11.88;4.47;;;;;;;;;;5073010;28;20455;-77
2022/07/27 05:50:48;;;;;;;7.28;4.28;;;;;;;;;;5057524;28;20017;-76
2022/07/27 05:53:14;;;;;;;11.35;4.78;;;;;;;;;;5051566;28;20086;-77
2022/07/27 05:55:40;;;;;;;13.25;3.17;;;;;;;;;;5053094;28;20024;-77
2022/07/27 05:58:06;;;;;;;10.27;3.10;;;;;;;;;;5053177;28;20021;-77
2022/07/27 06:00:32;;;;;;;8.80;3.05;;;;;;;;;;5053274;28;20017;-77
2022/07/27 06:02:58;;;;;;;13.93;3.50;;;;;;;;;;5052995;28;20020;-77
2022/07/27 06:05:25;;;;;;;7.07;3.15;;;;;;;;;;5052896;28;20032;-77
2022/07/27 06:08:05;;;;;;;6.65;2.63;;;;;;;;;;5053048;28;20029;-77
2022/07/27 06:10:32;;;;;;;7.85;2.65;;;;;;;;;;5052719;28;20021;-77
2022/07/27 06:12:58;;;;;;;9.13;2.58;;;;;;;;;;5052283;28;20029;-76
2022/07/27 06:15:24;;;;;;;8.15;2.33;;;;;;;;;;5052904;28;20325;-77
2022/07/27 06:17:52;;;;;;;9.68;2.42;;;;;;;;;;5052940;28;20024;-77
2022/07/27 06:20:19;;;;;;;7.43;2.33;;;;;;;;;;5052869;28;20028;-77
2022/07/27 06:22:45;;;;;;;12.40;2.88;;;;;;;;;;5052908;28;20028;-77
2022/07/27 06:25:12;;;;;;;5.95;2.50;;;;;;;;;;5052918;28;20363;-77
2022/07/27 06:27:38;;;;;;;7.95;2.10;;;;;;;;;;5051594;28;20036;-77
2022/07/27 06:30:04;;;;;;;7.88;2.20;;;;;;;;;;5070831;28;20048;-77
2022/07/27 06:32:30;;;;;;;8.50;2.60;;;;;;;;;;5072628;28;20021;-77
2022/07/27 06:34:56;;;;;;;9.77;2.47;;;;;;;;;;5072868;28;20020;-77
2022/07/27 06:37:22;;;;;;;6.90;1.98;;;;;;;;;;5072556;28;20032;-77
2022/07/27 06:39:48;;;;;;;5.40;2.20;;;;;;;;;;5072532;28;20024;-77
2022/07/27 06:42:14;;;;;;;5.05;2.08;;;;;;;;;;5072252;28;20471;-77
2022/07/27 06:44:40;;;;;;;12.35;2.20;;;;;;;;;;5072487;28;20089;-77
2022/07/27 06:47:06;;;;;;;4.97;1.90;;;;;;;;;;5072257;28;20024;-77
2022/07/27 06:49:32;;;;;;;7.07;1.70;;;;;;;;;;5072473;28;20023;-77
2022/07/27 06:51:58;;;;;;;10.35;2.13;;;;;;;;;;5071949;28;20040;-77
2022/07/27 06:54:24;;;;;;;5.93;2.38;;;;;;;;;;5070194;28;20490;-77
2022/07/27 06:56:50;;;;;;;7.88;1.92;;;;;;;;;;5071319;28;20043;-76
2022/07/27 06:59:16;;;;;;;7.13;1.95;;;;;;;;;;5071062;28;20029;-76
2022/07/27 07:01:42;;;;;;;9.35;1.90;;;;;;;;;;5070530;28;20528;-76
2022/07/27 07:04:09;;;;;;;8.90;1.65;;;;;;;;;;5071724;28;20033;-76
2022/07/27 07:06:35;;;;;;;5.35;2.20;;;;;;;;;;5071761;28;20024;-76
2022/07/27 07:09:01;;;;;;;9.85;1.70;;;;;;;;;;5070736;28;20120;-76
2022/07/27 07:11:27;;;;;;;6.72;1.92;;;;;;;;;;5063342;28;20057;-76
2022/07/27 07:13:53;;;;;;;6.82;1.50;;;;;;;;;;5060420;28;20793;-76
2022/07/27 07:16:19;;;;;;;5.60;1.70;;;;;;;;;;5071603;28;20387;-76
2022/07/27 07:18:45;;;;;;;10.00;1.70;;;;;;;;;;5071843;28;20481;-76
2022/07/27 07:21:11;;;;;;;6.57;1.70;;;;;;;;;;5071677;28;20024;-76
2022/07/27 07:23:37;;;;;;;4.07;1.40;;;;;;;;;;5072034;28;20024;-76
2022/07/27 07:26:03;;;;;;;5.38;1.98;;;;;;;;;;5075458;28;20033;-76
2022/07/27 07:28:29;;;;;;;9.00;1.67;;;;;;;;;;5075544;28;20094;-77
2022/07/27 07:30:56;;;;;;;3.35;1.55;;;;;;;;;;5075732;28;20801;-75
2022/07/27 07:33:22;;;;;;;6.75;1.55;;;;;;;;;;5074559;28;20086;-76
2022/07/27 07:35:48;;;;;;;5.78;1.55;;;;;;;;;;5075415;28;20020;-77
2022/07/27 07:38:14;;;;;;;4.72;1.30;;;;;;;;;;5075436;28;20024;-77
2022/07/27 07:40:40;;;;;;;9.75;1.20;;;;;;;;;;5075139;28;20078;-76
2022/07/27 07:43:06;;;;;;;3.55;0.93;;;;;;;;;;5074986;28;20040;-76
2022/07/27 07:45:34;;;;;;;9.52;0.80;;;;;;;;;;5069538;28;20055;-76
2022/07/27 07:48:00;;;;;;;4.45;0.63;;;;;;;;;;5075103;28;20327;-76
2022/07/27 07:50:26;;;;;;;5.60;0.63;;;;;;;;;;5074985;28;20040;-77
2022/07/27 07:52:53;;;;;;;3.60;0.68;;;;;;;;;;5074653;28;20028;-77
2022/07/27 07:55:21;;;;;;;5.47;0.70;;;;;;;;;;5073817;28;20363;-79
2022/07/27 07:57:47;;;;;;;3.35;1.10;;;;;;;;;;5073604;28;20024;-79
2022/07/27 08:00:13;;;;;;;4.65;1.05;;;;;;;;;;5075165;28;20029;-77
2022/07/27 08:02:46;;;;;;;5.00;0.80;;;;;;;;;;5074422;28;20025;-78
2022/07/27 08:05:12;;;;;;;4.15;0.98;;;;;;;;;;5060600;28;20054;-78
2022/07/27 08:07:39;;;;;;;7.85;1.23;;;;;;;;;;5074116;28;20474;-78
2022/07/27 08:10:06;;;;;;;6.90;1.65;;;;;;;;;;5074211;28;20031;-74
2022/07/27 08:12:32;;;;;;;3.75;1.15;;;;;;;;;;5072951;28;20078;-78
2022/07/27 08:14:58;;;;;;;5.55;1.17;;;;;;;;;;5074030;28;20025;-78
2022/07/27 08:17:24;;;;;;;5.38;1.00;;;;;;;;;;5073697;28;20025;-78
2022/07/27 08:19:50;;;;;;;4.68;1.10;;;;;;;;;;5072427;28;20386;-78
2022/07/27 08:22:16;;;;;;;4.82;0.85;;;;;;;;;;5073503;28;20029;-76
2022/07/27 08:24:42;;;;;;;8.07;1.00;;;;;;;;;;5073215;28;20021;-75
2022/07/27 08:27:09;;;;;;;4.45;0.93;;;;;;;;;;5073307;28;20020;-76
2022/07/27 08:29:35;;;;;;;5.78;1.02;;;;;;;;;;5073544;28;20021;-75
2022/07/27 08:32:01;;;;;;;8.63;1.13;;;;;;;;;;5072316;28;20475;-76
2022/07/27 08:34:27;;;;;;;6.07;1.35;;;;;;;;;;5072512;28;20272;-76
2022/07/27 08:36:53;;;;;;;7.43;1.10;;;;;;;;;;5072967;28;20040;-76
2022/07/27 08:39:19;;;;;;;3.65;1.00;;;;;;;;;;5072927;28;20059;-76
2022/07/27 08:41:45;;;;;;;4.82;0.68;;;;;;;;;;5074209;28;20567;-78
2022/07/27 08:44:13;;;;;;;4.85;0.85;;;;;;;;;;5074160;28;20063;-78
2022/07/27 08:46:39;;;;;;;4.35;1.25;;;;;;;;;;5073002;28;20028;-75
2022/07/27 08:49:06;;;;;;;2.80;0.80;;;;;;;;;;5073076;28;20332;-74
2022/07/27 08:51:33;;;;;;;8.65;1.20;;;;;;;;;;5073472;28;20081;-74
2022/07/27 08:54:00;;;;;;;4.40;0.85;;;;;;;;;;5073562;28;20043;-75
2022/07/27 08:56:26;;;;;;;3.42;0.70;;;;;;;;;;5072956;28;20537;-75
2022/07/27 08:58:53;;;;;;;7.13;0.93;;;;;;;;;;5073115;28;20095;-75
2022/07/27 09:01:19;;;;;;;1.58;0.70;;;;;;;;;;5072889;28;20738;-74
2022/07/27 09:03:45;;;;;;;3.88;0.80;;;;;;;;;;5073062;28;20123;-75
2022/07/27 09:06:11;;;;;;;4.82;0.80;;;;;;;;;;5072945;28;20040;-74
2022/07/27 09:08:40;;;;;;;4.30;0.65;;;;;;;;;;5072869;28;20070;-74
2022/07/27 09:11:15;;;;;;;2.83;0.70;;;;;;;;;;5066319;28;20047;-74
2022/07/27 09:13:41;;;;;;;4.97;0.90;;;;;;;;;;5052223;28;20029;-74
2022/07/27 09:16:08;;;;;;;2.95;0.70;;;;;;;;;;5052413;28;20457;-75
2022/07/27 09:18:37;;;;;;;4.38;0.75;;;;;;;;;;5052738;28;20026;-74
2022/07/27 09:21:19;;;;;;;4.35;0.70;;;;;;;;;;5052421;28;20029;-74
2022/07/27 09:23:56;;;;;;;5.80;0.90;;;;;;;;;;5052445;28;20082;-75
2022/07/27 09:26:26;;;;;;;2.97;0.60;;;;;;;;;;5052084;28;20021;-75
2022/07/27 09:29:02;;;;;;;5.55;0.70;;;;;;;;;;5052565;28;20033;-74
2022/07/27 09:31:29;;;;;;;1.80;0.60;;;;;;;;;;5052135;28;20036;-74
2022/07/27 09:33:56;;;;;;;2.88;0.73;;;;;;;;;;5052373;28;20060;-73
2022/07/27 09:36:23;;;;;;;4.53;0.80;;;;;;;;;;5052222;28;20049;-75
2022/07/27 09:38:51;;;;;;;4.82;0.77;;;;;;;;;;5052494;28;20021;-74
2022/07/27 09:41:17;;;;;;;4.70;0.75;;;;;;;;;;5050488;28;20443;-74
2022/07/27 09:43:46;;;;;;;5.03;0.80;;;;;;;;;;5052304;28;20057;-74
2022/07/27 09:46:12;;;;;;;3.58;0.70;;;;;;;;;;5054201;28;20036;-75
2022/07/27 09:48:38;;;;;;;2.63;0.63;;;;;;;;;;5068796;28;20040;-75
2022/07/27 09:51:06;;;;;;;4.15;0.80;;;;;;;;;;5071619;28;20021;-74
2022/07/27 09:53:33;;;;;;;1.13;0.50;;;;;;;;;;5072270;28;20126;-75
2022/07/27 09:56:05;;;;;;;2.95;0.70;;;;;;;;;;5071260;28;20052;-73
2022/07/27 09:58:39;;;;;;;3.80;0.70;;;;;;;;;;5072157;28;20517;-75
2022/07/27 10:01:05;;;;;;;2.47;0.57;;;;;;;;;;5072166;28;20030;-79
2022/07/27 10:03:31;;;;;;;2.67;0.60;;;;;;;;;;5071872;28;20013;-77
2022/07/27 10:05:58;;;;;;;8.93;1.25;;;;;;;;;;5072106;28;20039;-75
2022/07/27 10:08:24;;;;;;;5.30;0.80;;;;;;;;;;5070540;28;20029;-75
2022/07/27 10:10:50;;;;;;;2.80;0.70;;;;;;;;;;5070534;28;20070;-75
2022/07/27 10:13:16;;;;;;;6.05;0.70;;;;;;;;;;5071243;28;20028;-76
2022/07/27 10:15:43;;;;;;;5.05;1.10;;;;;;;;;;5070934;28;20020;-76
2022/07/27 10:18:11;;;;;;;3.42;0.77;;;;;;;;;;5070744;28;20021;-76
2022/07/27 10:20:39;;;;;;;3.58;1.10;;;;;;;;;;5071411;28;20019;-75
2022/07/27 10:23:05;;;;;;;2.75;0.68;;;;;;;;;;5071076;28;20020;-76
2022/07/27 10:25:31;;;;;;;3.60;0.70;;;;;;;;;;5070737;28;20020;-75
2022/07/27 10:28:16;;;;;;;1.50;0.70;;;;;;;;;;5070104;28;20025;-76
2022/07/27 10:30:43;;;;;;;4.35;0.93;;;;;;;;;;5068654;28;20485;-76
2022/07/27 10:33:27;;;;;;;4.75;0.50;;;;;;;;;;5071149;28;20024;-76
2022/07/27 10:35:53;;;;;;;2.22;0.57;;;;;;;;;;5071381;28;20032;-77
2022/07/27 10:38:20;;;;;;;3.92;0.77;;;;;;;;;;5069449;28;20074;-76
2022/07/27 10:40:47;;;;;;;2.65;0.60;;;;;;;;;;5071002;28;20039;-76
2022/07/27 10:43:17;;;;;;;4.75;0.70;;;;;;;;;;5070952;28;20055;-75
2022/07/27 10:45:44;;;;;;;5.88;0.80;;;;;;;;;;5071143;28;20474;-75
2022/07/27 10:48:30;;;;;;;4.32;0.68;;;;;;;;;;5071377;28;20028;-75
2022/07/27 10:50:56;;;;;;;4.70;0.85;;;;;;;;;;5070773;28;20458;-76
2022/07/27 10:53:31;;;;;;;4.30;0.68;;;;;;;;;;5070990;28;20025;-76
2022/07/27 10:55:58;;;;;;;4.55;0.85;;;;;;;;;;5071248;28;20683;-76
2022/07/27 10:58:27;;;;;;;5.85;0.55;;;;;;;;;;5072656;28;20475;-76
2022/07/27 11:00:53;;;;;;;2.75;0.70;;;;;;;;;;5075835;28;20071;-76
2022/07/27 11:03:22;;;;;;;1.80;0.55;;;;;;;;;;5075695;28;20048;-76
2022/07/27 11:05:59;;;;;;;2.35;0.60;;;;;;;;;;5075855;28;20458;-76
2022/07/27 11:08:25;;;;;;;5.50;0.77;;;;;;;;;;5075845;28;20028;-76
2022/07/27 11:10:52;;;;;;;2.75;1.17;;;;;;;;;;5072211;28;20067;-76
2022/07/27 11:13:18;;;;;;;2.40;0.80;;;;;;;;;;5055781;28;20033;-76
2022/07/27 11:15:55;;;;;;;2.40;0.65;;;;;;;;;;5056592;28;20017;-78
2022/07/27 11:18:47;;;;;;;3.53;0.80;;;;;;;;;;5056466;28;20053;-78
2022/07/27 11:21:24;;;;;;;3.45;0.85;;;;;;;;;;5054289;28;20449;-78
2022/07/27 11:23:53;;;;;;;3.40;0.65;;;;;;;;;;5055847;28;20091;-77
2022/07/27 11:26:20;;;;;;;5.88;0.90;;;;;;;;;;5055351;28;20025;-77
2022/07/27 11:28:46;;;;;;;3.45;0.88;;;;;;;;;;5057572;28;20032;-77
2022/07/27 11:31:12;;;;;;;6.18;0.88;;;;;;;;;;5075607;28;20025;-76
2022/07/27 11:33:55;;;;;;;2.22;0.70;;;;;;;;;;5073860;28;20055;-76
2022/07/27 11:36:22;;;;;;;2.53;0.57;;;;;;;;;;5075645;28;20081;-77
2022/07/27 11:38:48;;;;;;;7.97;0.90;;;;;;;;;;5076015;28;20032;-76
2022/07/27 11:41:21;;;;;;;6.68;0.80;;;;;;;;;;5075354;28;20041;-75
2022/07/27 11:43:47;;;;;;;1.55;0.70;;;;;;;;;;5075473;28;20017;-76
2022/07/27 11:46:24;;;;;;;4.97;0.80;;;;;;;;;;5074622;28;20048;-76
2022/07/27 11:48:55;;;;;;;2.63;0.90;;;;;;;;;;5073972;28;20012;-76
2022/07/27 11:51:22;;;;;;;4.53;0.90;;;;;;;;;;5059829;28;20024;-76
2022/07/27 11:53:48;;;;;;;8.73;0.73;;;;;;;;;;5072856;28;20025;-77
2022/07/27 11:56:24;;;;;;;4.15;0.60;;;;;;;;;;5073376;28;20020;-76
2022/07/27 11:58:57;;;;;;;4.75;0.93;;;;;;;;;;5073209;28;20480;-76
2022/07/27 12:01:33;;;;;;;2.90;0.50;;;;;;;;;;5073568;28;20025;-73
2022/07/27 12:04:19;;;;;;;2.60;0.60;;;;;;;;;;5074220;28;20044;-76
2022/07/27 12:06:47;;;;;;;2.92;0.60;;;;;;;;;;5070640;28;20545;-77
2022/07/27 12:09:14;;;;;;;1.90;0.50;;;;;;;;;;5073251;28;20111;-76
2022/07/27 12:11:49;;;;;;;5.28;0.60;;;;;;;;;;5073322;28;20020;-76
2022/07/27 12:14:19;;;;;;;3.65;0.50;;;;;;;;;;5074271;28;20107;-75
2022/07/27 12:16:45;;;;;;;2.83;0.98;;;;;;;;;;5073998;28;20078;-76
2022/07/27 12:19:11;;;;;;;3.85;0.63;;;;;;;;;;5074099;28;20497;-78
2022/07/27 12:21:37;;;;;;;2.00;0.40;;;;;;;;;;5073357;28;20025;-77
2022/07/27 12:24:03;;;;;;;4.15;0.45;;;;;;;;;;5073437;28;20021;-77
2022/07/27 12:26:30;;;;;;;1.52;0.70;;;;;;;;;;5073550;28;20056;-76
2022/07/27 12:29:09;;;;;;;5.68;0.52;;;;;;;;;;5073959;28;20427;-76
2022/07/27 12:31:36;;;;;;;4.15;0.50;;;;;;;;;;5073726;28;20027;-77
2022/07/27 12:34:04;;;;;;;6.47;0.77;;;;;;;;;;5073925;28;20507;-78
2022/07/27 12:36:30;;;;;;;8.10;0.60;;;;;;;;;;5070302;28;20301;-75
2022/07/27 12:38:57;;;;;;;4.53;0.47;;;;;;;;;;5073728;28;20030;-75
2022/07/27 12:41:29;;;;;;;4.07;0.77;;;;;;;;;;5073380;28;20473;-75
2022/07/27 12:44:07;;;;;;;2.85;0.50;;;;;;;;;;5073691;28;20114;-76
2022/07/27 12:46:34;;;;;;;5.80;0.85;;;;;;;;;;5072770;28;20032;-76
2022/07/27 12:49:00;;;;;;;4.80;0.60;;;;;;;;;;5072584;28;20102;-74
2022/07/27 12:51:26;;;;;;;3.50;0.70;;;;;;;;;;5072057;28;20035;-77
2022/07/27 12:53:52;;;;;;;4.85;1.40;;;;;;;;;;5073394;28;20028;-78
2022/07/27 12:56:18;;;;;;;5.55;0.57;;;;;;;;;;5073414;28;20024;-73
2022/07/27 12:59:03;;;;;;;7.78;0.60;;;;;;;;;;5073546;28;20029;-81
2022/07/27 13:01:30;;;;;;;4.43;0.60;;;;;;;;;;5071405;28;20355;-76
2022/07/27 13:03:56;;;;;;;4.03;0.80;;;;;;;;;;5073505;28;20027;-75
2022/07/27 13:06:22;;;;;;;7.13;0.80;;;;;;;;;;5072959;28;20124;-76
2022/07/27 13:08:48;;;;;;;2.67;0.63;;;;;;;;;;5073189;28;20423;-75
2022/07/27 13:11:14;;;;;;;4.20;0.80;;;;;;;;;;5072566;28;20021;-75
2022/07/27 13:13:40;;;;;;;3.70;0.90;;;;;;;;;;5072883;28;20024;-75
2022/07/27 13:16:06;;;;;;;3.20;0.63;;;;;;;;;;5072857;28;20017;-75
2022/07/27 13:18:32;;;;;;;4.85;0.68;;;;;;;;;;5072948;28;20047;-75
2022/07/27 13:20:58;;;;;;;1.73;0.60;;;;;;;;;;5072636;28;20024;-75
2022/07/27 13:23:24;;;;;;;2.85;0.50;;;;;;;;;;5071170;28;20047;-75
2022/07/27 13:25:50;;;;;;;3.40;1.00;;;;;;;;;;5071392;28;20927;-74
2022/07/27 13:28:16;;;;;;;6.20;0.70;;;;;;;;;;5071468;28;20100;-75
2022/07/27 13:30:42;;;;;;;2.47;0.73;;;;;;;;;;5071548;28;20031;-75
2022/07/27 13:33:09;;;;;;;1.65;0.70;;;;;;;;;;5071728;28;20025;-74
2022/07/27 13:35:35;;;;;;;3.10;0.52;;;;;;;;;;5071545;28;20035;-73
2022/07/27 13:38:01;;;;;;;4.65;0.70;;;;;;;;;;5070712;28;20031;-73
2022/07/27 13:40:27;;;;;;;2.72;0.60;;;;;;;;;;5070266;28;20017;-74
2022/07/27 13:42:53;;;;;;;4.43;0.80;;;;;;;;;;5071766;28;20064;-74
2022/07/27 13:45:19;;;;;;;2.92;0.60;;;;;;;;;;5071743;28;20032;-74
2022/07/27 13:47:45;;;;;;;3.80;0.80;;;;;;;;;;5072016;28;20462;-74
2022/07/27 13:50:12;;;;;;;2.75;0.57;;;;;;;;;;5066840;28;20033;-73
2022/07/27 13:52:38;;;;;;;6.03;0.70;;;;;;;;;;5050797;28;20033;-74
2022/07/27 13:55:04;;;;;;;2.53;0.57;;;;;;;;;;5051401;28;20098;-73
2022/07/27 13:57:30;;;;;;;6.28;0.80;;;;;;;;;;5057933;28;20074;-73
2022/07/27 13:59:58;;;;;;;4.55;0.85;;;;;;;;;;5070858;28;20107;-74
2022/07/27 14:02:24;;;;;;;2.80;0.50;;;;;;;;;;5070952;28;20099;-73
2022/07/27 14:04:50;;;;;;;4.60;0.95;;;;;;;;;;5069664;28;20044;-73
2022/07/27 14:07:17;;;;;;;4.38;0.98;;;;;;;;;;5071093;28;20032;-74
2022/07/27 14:12:28;;;;;;;3.03;0.50;;;;;;;;;;5071437;28;20048;-74
2022/07/27 14:14:54;;;;;;;3.47;0.82;;;;;;;;;;5071363;28;20032;-74
2022/07/27 14:17:20;;;;;;;4.25;0.63;;;;;;;;;;5071629;28;20048;-74
2022/07/27 14:19:46;;;;;;;6.45;0.68;;;;;;;;;;5070060;28;20028;-73
2022/07/27 14:22:12;;;;;;;2.17;0.65;;;;;;;;;;5070895;28;20106;-74
2022/07/27 14:24:44;;;;;;;3.75;0.70;;;;;;;;;;5070418;28;20032;-74
2022/07/27 14:27:10;;;;;;;2.50;0.73;;;;;;;;;;5068587;28;20044;-73
2022/07/27 14:29:36;;;;;;;5.63;1.00;;;;;;;;;;5068694;28;20031;-74
2022/07/27 14:32:02;;;;;;;2.83;0.60;;;;;;;;;;5070512;28;20027;-74
2022/07/27 14:34:28;;;;;;;12.38;1.27;;;;;;;;;;5070974;28;20084;-74
2022/07/27 14:36:54;;;;;;;2.58;0.82;;;;;;;;;;5071323;28;20024;-74
2022/07/27 14:39:20;;;;;;;2.55;0.77;;;;;;;;;;5070157;28;20024;-74
2022/07/27 14:41:47;;;;;;;2.95;0.60;;;;;;;;;;5069563;28;20045;-74
2022/07/27 14:44:14;;;;;;;4.30;0.60;;;;;;;;;;5070714;28;20148;-74
2022/07/27 14:46:40;;;;;;;1.45;0.57;;;;;;;;;;5070933;28;20064;-75
2022/07/27 14:49:07;;;;;;;2.58;0.70;;;;;;;;;;5070495;28;20040;-74